createdAt,value
2023-03-04T00:00:30.893Z,9.23
2023-03-04T00:02:58.166Z,9.45
2023-03-04T00:05:25.417Z,10.13
2023-03-04T00:07:52.322Z,10.02
2023-03-04T00:10:19.395Z,7.95
2023-03-04T00:12:46.363Z,9.15
2023-03-04T00:15:13.295Z,10.60
2023-03-04T00:17:40.241Z,10.07
2023-03-04T00:20:08.865Z,11.00
2023-03-04T00:22:36.057Z,12.40
2023-03-04T00:25:03.031Z,9.45
2023-03-04T00:27:30.153Z,9.27
2023-03-04T00:29:57.747Z,10.73
2023-03-04T00:32:24.992Z,9.90
2023-03-04T00:34:51.986Z,9.85
2023-03-04T00:37:18.954Z,10.10
2023-03-04T00:39:45.970Z,10.38
2023-03-04T00:42:12.957Z,10.35
2023-03-04T00:44:39.932Z,9.25
2023-03-04T00:47:06.925Z,9.57
2023-03-04T00:49:33.839Z,10.18
2023-03-04T00:52:00.785Z,9.40
2023-03-04T00:54:27.840Z,10.00
2023-03-04T00:56:54.857Z,9.13
2023-03-04T00:59:22.053Z,7.30
2023-03-04T01:01:49.057Z,9.82
2023-03-04T01:04:17.963Z,8.88
2023-03-04T01:06:44.998Z,11.63
2023-03-04T01:09:14.046Z,10.52
2023-03-04T01:11:41.257Z,11.95
2023-03-04T01:14:08.246Z,10.15
2023-03-04T01:16:35.583Z,9.05
2023-03-04T01:19:02.729Z,9.85
2023-03-04T01:21:31.096Z,10.63
2023-03-04T01:23:58.071Z,7.57
2023-03-04T01:26:25.010Z,11.65
2023-03-04T01:28:52.381Z,9.20
2023-03-04T01:31:19.667Z,11.52
2023-03-04T01:33:46.731Z,9.50
2023-03-04T01:36:13.991Z,10.60
2023-03-04T01:38:41.008Z,9.57
2023-03-04T01:41:08.512Z,9.38
2023-03-04T01:43:37.988Z,9.55
2023-03-04T01:46:06.231Z,9.50
2023-03-04T01:48:38.168Z,11.55
2023-03-04T01:51:07.166Z,15.15
2023-03-04T01:53:34.400Z,9.38
2023-03-04T01:56:12.221Z,9.23
2023-03-04T01:58:39.173Z,11.80
2023-03-04T02:01:06.084Z,10.07
2023-03-04T02:03:33.231Z,8.90
2023-03-04T02:06:01.361Z,8.77
2023-03-04T02:08:28.538Z,10.52
2023-03-04T02:10:57.086Z,9.32
2023-03-04T02:13:24.053Z,11.35
2023-03-04T02:15:52.046Z,9.10
2023-03-04T02:18:24.918Z,10.77
2023-03-04T02:21:25.052Z,10.05
2023-03-04T02:24:26.804Z,10.27
2023-03-04T02:26:53.953Z,8.77
2023-03-04T02:29:21.232Z,10.82
2023-03-04T02:31:52.421Z,8.80
2023-03-04T02:36:53.770Z,9.90
2023-03-04T02:39:20.685Z,8.18
2023-03-04T02:41:50.728Z,9.93
2023-03-04T02:44:31.159Z,10.73
2023-03-04T02:46:59.876Z,10.32
2023-03-04T02:49:31.191Z,11.35
2023-03-04T02:52:22.022Z,12.05
2023-03-04T02:54:49.013Z,10.88
2023-03-04T02:57:17.257Z,11.48
2023-03-04T02:59:48.176Z,11.35
2023-03-04T03:04:46.283Z,9.98
2023-03-04T03:07:15.900Z,11.60
2023-03-04T03:09:43.519Z,11.23
2023-03-04T03:12:10.915Z,12.77
2023-03-04T03:14:38.088Z,11.18
2023-03-04T03:17:05.977Z,10.13
2023-03-04T03:19:33.019Z,10.60
2023-03-04T03:22:02.893Z,12.80
2023-03-04T03:24:29.940Z,9.93
2023-03-04T03:26:56.912Z,11.68
2023-03-04T03:29:24.536Z,9.98
2023-03-04T03:31:51.555Z,11.00
2023-03-04T03:34:20.526Z,10.77
2023-03-04T03:36:48.602Z,11.48
2023-03-04T03:39:15.727Z,10.18
2023-03-04T03:41:42.719Z,11.63
2023-03-04T03:44:09.664Z,9.80
2023-03-04T03:46:36.667Z,11.75
2023-03-04T03:49:03.646Z,9.65
2023-03-04T03:51:30.573Z,12.77
2023-03-04T03:53:57.479Z,9.10
2023-03-04T03:56:24.407Z,13.85
2023-03-04T03:58:51.370Z,10.05
2023-03-04T04:01:18.342Z,10.05
2023-03-04T04:03:45.276Z,10.52
2023-03-04T04:06:12.314Z,9.10
2023-03-04T04:08:39.339Z,11.77
2023-03-04T04:11:06.255Z,11.07
2023-03-04T04:13:33.181Z,12.60
2023-03-04T04:16:00.166Z,11.20
2023-03-04T04:18:27.760Z,14.00
2023-03-04T04:20:55.135Z,12.40
2023-03-04T04:23:22.172Z,10.73
2023-03-04T04:25:49.139Z,12.20
2023-03-04T04:28:16.168Z,10.88
2023-03-04T04:30:43.295Z,10.23
2023-03-04T04:33:10.610Z,10.65
2023-03-04T04:35:38.822Z,10.07
2023-03-04T04:38:07.860Z,10.65
2023-03-04T04:40:34.952Z,12.38
2023-03-04T04:43:02.273Z,13.45
2023-03-04T04:45:29.243Z,14.07
2023-03-04T04:47:57.412Z,13.00
2023-03-04T04:50:25.101Z,12.70
2023-03-04T04:52:52.478Z,10.55
2023-03-04T04:55:19.569Z,11.38
2023-03-04T04:57:46.530Z,13.75
2023-03-04T05:00:14.356Z,13.60
2023-03-04T05:02:41.303Z,11.40
2023-03-04T05:05:08.570Z,12.70
2023-03-04T05:07:35.581Z,13.82
2023-03-04T05:10:03.017Z,11.05
2023-03-04T05:12:30.168Z,11.45
2023-03-04T05:14:57.145Z,13.65
2023-03-04T05:17:24.101Z,11.75
2023-03-04T05:19:51.047Z,11.57
2023-03-04T05:22:18.028Z,11.90
2023-03-04T05:24:44.980Z,13.07
2023-03-04T05:27:12.055Z,12.88
2023-03-04T05:29:39.068Z,13.75
2023-03-04T05:32:06.043Z,13.38
2023-03-04T05:34:33.087Z,14.68
2023-03-04T05:37:00.035Z,13.48
2023-03-04T05:39:26.969Z,13.45
2023-03-04T05:41:53.949Z,13.50
2023-03-04T05:44:20.916Z,14.40
2023-03-04T05:46:47.890Z,12.40
2023-03-04T05:49:14.847Z,13.80
2023-03-04T05:51:41.773Z,13.65
2023-03-04T05:54:08.785Z,13.23
2023-03-04T05:56:35.820Z,18.70
2023-03-04T05:59:02.866Z,17.80
2023-03-04T06:01:31.277Z,20.20
2023-03-04T06:03:58.342Z,19.75
2023-03-04T06:06:25.345Z,17.75
2023-03-04T06:08:52.344Z,15.27
2023-03-04T06:11:19.310Z,19.25
2023-03-04T06:13:46.279Z,20.70
2023-03-04T06:16:13.242Z,18.90
2023-03-04T06:18:40.244Z,15.68
2023-03-04T06:21:07.208Z,17.00
2023-03-04T06:23:34.167Z,19.88
2023-03-04T06:26:01.986Z,21.65
2023-03-04T06:28:29.408Z,26.13
2023-03-04T06:30:57.769Z,25.35
2023-03-04T06:33:25.546Z,23.23
2023-03-04T06:35:57.687Z,28.55
2023-03-04T06:38:26.322Z,26.45
2023-03-04T06:40:56.082Z,28.10
2023-03-04T06:43:24.339Z,25.80
2023-03-04T06:45:51.365Z,28.88
2023-03-04T06:48:18.297Z,24.15
2023-03-04T06:50:45.214Z,27.20
2023-03-04T06:53:12.175Z,28.23
2023-03-04T06:55:39.084Z,26.55
2023-03-04T06:58:06.049Z,24.13
2023-03-04T07:00:33.083Z,24.98
2023-03-04T07:03:00.344Z,23.73
2023-03-04T07:05:27.499Z,26.67
2023-03-04T07:07:54.693Z,22.48
2023-03-04T07:10:21.617Z,21.80
2023-03-04T07:12:48.571Z,21.77
2023-03-04T07:15:15.524Z,21.27
2023-03-04T07:17:42.719Z,22.63
2023-03-04T07:20:10.696Z,21.10
2023-03-04T07:22:37.823Z,24.27
2023-03-04T07:25:06.580Z,24.45
2023-03-04T07:27:33.538Z,25.88
2023-03-04T07:30:00.515Z,23.00
2023-03-04T07:32:27.495Z,28.90
2023-03-04T07:34:54.447Z,28.35
2023-03-04T07:37:21.393Z,30.00
2023-03-04T07:39:48.421Z,27.95
2023-03-04T07:42:15.411Z,29.15
2023-03-04T07:44:51.023Z,30.55
2023-03-04T07:47:17.961Z,32.17
2023-03-04T07:49:44.901Z,31.10
2023-03-04T07:52:14.202Z,33.70
2023-03-04T07:54:41.172Z,29.58
2023-03-04T07:57:08.103Z,32.53
2023-03-04T07:59:35.026Z,28.98
2023-03-04T08:02:01.957Z,32.13
2023-03-04T08:04:28.977Z,31.40
2023-03-04T08:06:55.925Z,30.23
2023-03-04T08:09:22.937Z,29.55
2023-03-04T08:11:49.870Z,33.38
2023-03-04T08:14:16.924Z,35.33
2023-03-04T08:16:43.887Z,38.08
2023-03-04T08:19:12.497Z,31.20
2023-03-04T08:21:39.520Z,29.75
2023-03-04T08:24:08.682Z,30.95
2023-03-04T08:26:43.750Z,33.55
2023-03-04T08:29:16.006Z,28.85
2023-03-04T08:31:46.294Z,33.63
2023-03-04T08:34:15.378Z,27.33
2023-03-04T08:36:42.747Z,31.00
2023-03-04T08:39:14.216Z,35.28
2023-03-04T08:41:41.750Z,34.22
2023-03-04T08:44:10.233Z,34.22
2023-03-04T08:46:39.551Z,31.02
2023-03-04T08:49:07.340Z,33.08
2023-03-04T08:51:35.736Z,33.83
2023-03-04T08:54:05.845Z,36.78
2023-03-04T08:56:32.839Z,33.88
2023-03-04T08:59:00.140Z,34.28
2023-03-04T09:01:27.344Z,34.63
2023-03-04T09:03:54.858Z,36.10
2023-03-04T09:06:21.814Z,39.15
2023-03-04T09:08:48.739Z,34.15
2023-03-04T09:11:16.078Z,38.85
2023-03-04T09:13:43.056Z,33.63
2023-03-04T09:16:12.736Z,37.78
2023-03-04T09:18:41.594Z,33.38
2023-03-04T09:21:09.399Z,38.42
2023-03-04T09:23:37.897Z,37.90
2023-03-04T09:26:22.368Z,39.92
2023-03-04T09:28:55.126Z,33.72
2023-03-04T09:31:22.274Z,33.83
2023-03-04T09:33:52.103Z,34.42
2023-03-04T09:36:19.688Z,38.47
2023-03-04T09:38:46.850Z,39.42
2023-03-04T09:41:40.628Z,38.05
2023-03-04T09:44:29.419Z,35.95
2023-03-04T09:47:01.243Z,35.05
2023-03-04T09:49:28.790Z,35.83
2023-03-04T09:52:20.868Z,41.53
2023-03-04T09:55:21.016Z,36.60
2023-03-04T09:58:00.279Z,42.00
2023-03-04T10:00:44.543Z,37.65
2023-03-04T10:03:37.797Z,37.65
2023-03-04T10:06:10.301Z,39.42
2023-03-04T10:08:57.339Z,39.45
2023-03-04T10:11:50.313Z,35.35
2023-03-04T10:14:23.157Z,39.45
2023-03-04T10:16:52.960Z,35.38
2023-03-04T10:19:32.134Z,38.30
2023-03-04T10:21:59.500Z,38.95
2023-03-04T10:24:30.677Z,36.33
2023-03-04T10:29:33.974Z,34.28
2023-03-04T10:32:00.995Z,36.83
2023-03-04T10:34:28.113Z,38.70
2023-03-04T10:37:08.726Z,41.22
2023-03-04T10:39:43.664Z,40.70
2023-03-04T10:42:27.252Z,36.70
2023-03-04T10:44:59.471Z,35.78
2023-03-04T10:47:32.677Z,37.97
2023-03-04T10:50:02.424Z,35.47
2023-03-04T10:52:41.231Z,36.10
2023-03-04T10:55:22.361Z,38.17
2023-03-04T10:57:56.876Z,35.13
2023-03-04T11:00:35.619Z,38.97
2023-03-04T11:03:29.821Z,39.88
2023-03-04T11:06:19.854Z,36.88
2023-03-04T11:08:58.888Z,36.17
2023-03-04T11:11:42.900Z,37.42
2023-03-04T11:14:24.852Z,39.85
2023-03-04T11:16:59.326Z,33.05
2023-03-04T11:19:39.709Z,34.67
2023-03-04T11:22:06.986Z,35.20
2023-03-04T11:24:36.857Z,30.10
2023-03-04T11:27:22.460Z,37.42
2023-03-04T11:30:00.423Z,33.40
2023-03-04T11:32:40.827Z,33.40
2023-03-04T11:35:35.246Z,35.70
2023-03-04T11:38:18.488Z,36.63
2023-03-04T11:41:12.965Z,34.55
2023-03-04T11:43:44.924Z,33.50
2023-03-04T11:46:42.359Z,30.77
2023-03-04T11:49:30.339Z,34.05
2023-03-04T11:52:03.028Z,32.97
2023-03-04T11:54:58.662Z,36.33
2023-03-04T11:57:53.189Z,29.70
2023-03-04T12:00:41.781Z,30.13
2023-03-04T12:03:36.441Z,36.78
2023-03-04T12:06:18.497Z,30.70
2023-03-04T12:09:09.785Z,34.85
2023-03-04T12:14:46.338Z,25.65
2023-03-04T12:17:35.653Z,27.45
2023-03-04T12:20:37.329Z,25.50
2023-03-04T12:23:49.740Z,28.25
2023-03-04T12:26:22.977Z,29.88
2023-03-04T12:29:08.394Z,28.17
2023-03-04T12:31:41.002Z,28.90
2023-03-04T12:34:31.349Z,25.27
2023-03-04T12:37:30.658Z,31.17
2023-03-04T12:40:37.375Z,24.70
2023-03-04T12:43:36.297Z,27.75
2023-03-04T12:46:32.053Z,24.80
2023-03-04T12:49:23.283Z,26.67
2023-03-04T12:52:02.103Z,27.67
2023-03-04T12:54:43.179Z,26.25
2023-03-04T12:57:22.952Z,25.50
2023-03-04T13:00:13.989Z,29.20
2023-03-04T13:03:11.718Z,27.80
2023-03-04T13:06:04.362Z,19.65
2023-03-04T13:08:58.321Z,19.48
2023-03-04T13:11:28.327Z,24.20
2023-03-04T13:14:14.774Z,22.58
2023-03-04T13:16:54.477Z,19.63
2023-03-04T13:19:52.701Z,19.35
2023-03-04T13:22:40.773Z,18.33
2023-03-04T13:25:50.366Z,19.15
2023-03-04T13:28:32.970Z,17.23
2023-03-04T13:31:57.343Z,18.55
2023-03-04T13:34:45.808Z,18.33
2023-03-04T13:37:58.162Z,19.27
2023-03-04T13:40:35.457Z,15.60
2023-03-04T13:43:25.906Z,16.58
2023-03-04T13:45:53.034Z,20.40
2023-03-04T13:48:37.159Z,20.63
2023-03-04T13:51:04.428Z,17.50
2023-03-04T13:53:40.733Z,18.65
2023-03-04T13:56:37.447Z,17.55
2023-03-04T13:59:07.620Z,16.30
2023-03-04T14:01:38.891Z,18.30
2023-03-04T14:04:35.280Z,17.27
2023-03-04T14:07:19.404Z,16.50
2023-03-04T14:10:00.241Z,20.70
2023-03-04T14:12:30.307Z,18.40
2023-03-04T14:15:02.754Z,18.42
2023-03-04T14:17:37.321Z,16.73
2023-03-04T14:20:36.054Z,21.95
2023-03-04T14:23:23.021Z,15.85
2023-03-04T14:25:50.170Z,19.77
2023-03-04T14:28:20.780Z,18.45
2023-03-04T14:30:57.158Z,20.88
2023-03-04T14:33:30.486Z,16.48
2023-03-04T14:36:01.419Z,16.88
2023-03-04T14:41:34.395Z,15.25
2023-03-04T14:44:26.307Z,14.90
2023-03-04T14:47:08.301Z,19.33
2023-03-04T14:49:39.766Z,19.80
2023-03-04T14:52:07.382Z,17.42
2023-03-04T14:54:40.395Z,18.05
2023-03-04T14:57:29.708Z,23.40
2023-03-04T14:59:56.789Z,18.05
2023-03-04T15:02:33.141Z,21.38
2023-03-04T15:05:25.835Z,17.90
2023-03-04T15:08:06.964Z,19.48
2023-03-04T15:10:38.895Z,21.63
2023-03-04T15:13:09.491Z,18.55
2023-03-04T15:15:46.147Z,21.73
2023-03-04T15:18:26.589Z,17.45
2023-03-04T15:21:27.216Z,18.10
2023-03-04T15:23:54.210Z,21.10
2023-03-04T15:26:21.225Z,18.50
2023-03-04T15:28:48.323Z,17.88
2023-03-04T15:31:20.201Z,18.92
2023-03-04T15:33:48.121Z,16.20
2023-03-04T15:36:20.892Z,21.60
2023-03-04T15:38:53.440Z,24.17
2023-03-04T15:41:26.431Z,22.38
2023-03-04T15:43:54.796Z,23.92
2023-03-04T15:46:21.945Z,20.05
2023-03-04T15:48:50.041Z,20.25
2023-03-04T15:51:22.317Z,24.27
2023-03-04T15:53:59.172Z,18.48
2023-03-04T15:56:33.097Z,24.05
2023-03-04T15:59:11.229Z,23.10
2023-03-04T16:01:38.421Z,21.75
2023-03-04T16:04:05.621Z,17.95
2023-03-04T16:06:33.263Z,18.85
2023-03-04T16:09:01.219Z,24.67
2023-03-04T16:11:32.513Z,21.05
2023-03-04T16:13:59.465Z,23.88
2023-03-04T16:16:26.395Z,20.45
2023-03-04T16:18:53.316Z,26.70
2023-03-04T16:21:25.061Z,22.23
2023-03-04T16:23:54.419Z,24.40
2023-03-04T16:26:24.919Z,21.23
2023-03-04T16:28:53.433Z,19.75
2023-03-04T16:31:22.154Z,19.63
2023-03-04T16:33:49.215Z,20.40
2023-03-04T16:36:22.653Z,19.92
2023-03-04T16:38:50.418Z,21.05
2023-03-04T16:41:26.363Z,23.33
2023-03-04T16:43:55.807Z,22.67
2023-03-04T16:46:22.964Z,22.30
2023-03-04T16:48:49.902Z,21.67
2023-03-04T16:51:20.574Z,18.83
2023-03-04T16:53:56.527Z,21.48
2023-03-04T16:56:24.073Z,21.70
2023-03-04T16:58:54.062Z,24.77
2023-03-04T17:01:25.948Z,29.10
2023-03-04T17:03:53.810Z,23.85
2023-03-04T17:06:21.171Z,25.40
2023-03-04T17:08:48.271Z,26.02
2023-03-04T17:11:23.117Z,22.08
2023-03-04T17:13:50.538Z,22.38
2023-03-04T17:16:18.483Z,22.10
2023-03-04T17:18:45.970Z,24.63
2023-03-04T17:21:17.209Z,21.88
2023-03-04T17:26:11.749Z,20.83
2023-03-04T17:28:39.302Z,19.80
2023-03-04T17:31:16.338Z,20.25
2023-03-04T17:33:44.564Z,22.00
2023-03-04T17:36:13.582Z,18.67
2023-03-04T17:38:41.213Z,20.70
2023-03-04T17:41:17.340Z,23.23
2023-03-04T17:43:50.514Z,25.60
2023-03-04T17:46:22.009Z,25.80
2023-03-04T17:48:49.455Z,20.90
2023-03-04T17:51:16.397Z,25.23
2023-03-04T17:53:43.337Z,24.42
2023-03-04T17:56:12.305Z,26.73
2023-03-04T17:58:40.310Z,20.70
2023-03-04T18:01:20.169Z,22.13
2023-03-04T18:03:47.221Z,17.50
2023-03-04T18:06:14.696Z,20.92
2023-03-04T18:08:41.748Z,23.38
2023-03-04T18:11:09.330Z,22.42
2023-03-04T18:13:40.971Z,23.05
2023-03-04T18:16:09.024Z,20.40
2023-03-04T18:18:36.539Z,21.92
2023-03-04T18:21:04.941Z,21.30
2023-03-04T18:23:32.865Z,19.52
2023-03-04T18:26:01.595Z,18.95
2023-03-04T18:28:28.910Z,19.52
2023-03-04T18:30:57.000Z,21.23
2023-03-04T18:33:24.353Z,22.27
2023-03-04T18:36:03.488Z,20.55
2023-03-04T18:38:31.237Z,20.25
2023-03-04T18:41:00.502Z,24.50
2023-03-04T18:43:28.041Z,19.42
2023-03-04T18:46:26.407Z,23.38
2023-03-04T18:48:56.210Z,21.20
2023-03-04T18:51:23.160Z,24.88
2023-03-04T18:53:50.110Z,20.40
2023-03-04T18:56:37.580Z,22.67
2023-03-04T18:59:13.894Z,20.00
2023-03-04T19:01:41.370Z,21.70
2023-03-04T19:04:09.251Z,20.98
2023-03-04T19:06:36.316Z,20.85
2023-03-04T19:09:06.453Z,20.55
2023-03-04T19:11:33.757Z,22.30
2023-03-04T19:14:00.707Z,23.77
2023-03-04T19:16:27.693Z,20.70
2023-03-04T19:18:54.693Z,20.55
2023-03-04T19:21:21.634Z,25.25
2023-03-04T19:23:48.608Z,21.80
2023-03-04T19:26:15.660Z,25.33
2023-03-04T19:28:42.737Z,22.92
2023-03-04T19:31:11.118Z,26.83
2023-03-04T19:33:41.545Z,26.80
2023-03-04T19:36:10.149Z,28.02
2023-03-04T19:38:37.349Z,24.73
2023-03-04T19:41:10.701Z,21.15
2023-03-04T19:43:39.170Z,22.45
2023-03-04T19:46:08.540Z,20.58
2023-03-04T19:48:36.866Z,22.40
2023-03-04T19:51:05.147Z,23.00
2023-03-04T19:53:34.666Z,21.23
2023-03-04T19:56:01.892Z,23.58
2023-03-04T19:58:28.797Z,23.75
2023-03-04T20:00:56.220Z,21.85
2023-03-04T20:03:24.054Z,25.50
2023-03-04T20:05:51.024Z,25.42
2023-03-04T20:08:18.669Z,22.77
2023-03-04T20:10:45.674Z,24.95
2023-03-04T20:13:12.684Z,23.58
2023-03-04T20:15:43.611Z,24.80
2023-03-04T20:18:10.697Z,21.50
2023-03-04T20:20:39.046Z,25.13
2023-03-04T20:23:06.175Z,20.13
2023-03-04T20:25:33.149Z,18.23
2023-03-04T20:28:00.226Z,20.15
2023-03-04T20:30:27.339Z,24.13
2023-03-04T20:32:54.291Z,21.15
2023-03-04T20:35:21.372Z,22.02
2023-03-04T20:37:48.314Z,23.15
2023-03-04T20:40:15.345Z,20.52
2023-03-04T20:42:42.319Z,21.55
2023-03-04T20:45:09.791Z,19.55
2023-03-04T20:47:39.469Z,22.20
2023-03-04T20:50:07.431Z,21.80
2023-03-04T20:52:34.416Z,20.52
2023-03-04T20:55:01.442Z,18.48
2023-03-04T20:57:30.216Z,21.92
2023-03-04T20:59:57.205Z,20.02
2023-03-04T21:02:25.365Z,19.83
2023-03-04T21:04:52.457Z,20.92
2023-03-04T21:07:19.491Z,22.23
2023-03-04T21:09:46.446Z,21.00
2023-03-04T21:12:13.550Z,24.27
2023-03-04T21:14:40.831Z,22.48
2023-03-04T21:17:07.848Z,18.63
2023-03-04T21:19:43.106Z,23.60
2023-03-04T21:22:18.074Z,24.15
2023-03-04T21:24:46.366Z,17.13
2023-03-04T21:27:16.385Z,20.13
2023-03-04T21:29:43.693Z,19.92
2023-03-04T21:32:24.662Z,19.85
2023-03-04T21:37:24.450Z,15.98
2023-03-04T21:39:51.696Z,21.05
2023-03-04T21:42:18.855Z,20.50
2023-03-04T21:44:49.735Z,27.73
2023-03-04T21:47:19.180Z,18.98
2023-03-04T21:49:46.368Z,18.98
2023-03-04T21:52:13.478Z,20.73
2023-03-04T21:54:40.548Z,20.67
2023-03-04T21:57:07.613Z,22.15
2023-03-04T21:59:34.570Z,23.92
2023-03-04T22:02:02.295Z,22.25
2023-03-04T22:04:29.273Z,23.77
2023-03-04T22:06:56.311Z,23.70
2023-03-04T22:09:23.330Z,21.15
2023-03-04T22:11:50.351Z,17.75
2023-03-04T22:14:17.276Z,18.17
2023-03-04T22:16:59.562Z,20.50
2023-03-04T22:19:31.596Z,22.10
2023-03-04T22:21:59.207Z,20.92
2023-03-04T22:24:26.403Z,18.90
2023-03-04T22:26:53.477Z,17.70
2023-03-04T22:29:20.432Z,20.75
2023-03-04T22:31:47.654Z,21.02
2023-03-04T22:34:16.818Z,21.73
2023-03-04T22:36:46.194Z,20.02
2023-03-04T22:39:19.052Z,19.95
2023-03-04T22:41:46.387Z,22.80
2023-03-04T22:44:13.975Z,23.27
2023-03-04T22:46:41.083Z,25.13
2023-03-04T22:49:11.454Z,24.75
2023-03-04T22:51:44.005Z,21.98
2023-03-04T22:54:17.504Z,19.17
2023-03-04T22:56:45.139Z,19.70
2023-03-04T22:59:12.162Z,17.25
2023-03-04T23:01:39.285Z,22.73
2023-03-04T23:04:06.231Z,20.92
2023-03-04T23:06:33.561Z,21.92
2023-03-04T23:09:00.803Z,22.17
2023-03-04T23:11:35.348Z,21.85
2023-03-04T23:14:06.367Z,20.20
2023-03-04T23:16:37.178Z,17.70
2023-03-04T23:19:06.453Z,22.55
2023-03-04T23:21:33.979Z,23.08
2023-03-04T23:24:06.920Z,19.38
2023-03-04T23:26:41.067Z,18.88
2023-03-04T23:29:12.426Z,18.42
2023-03-04T23:31:39.429Z,23.27
2023-03-04T23:34:06.916Z,23.25
2023-03-04T23:36:36.277Z,22.20
2023-03-04T23:39:06.419Z,23.42
2023-03-04T23:41:34.427Z,23.17
2023-03-04T23:44:02.056Z,23.75
2023-03-04T23:46:29.364Z,21.30
2023-03-04T23:48:56.802Z,26.83
2023-03-04T23:51:29.094Z,25.80
2023-03-04T23:53:56.742Z,22.05
2023-03-04T23:56:28.900Z,24.10
2023-03-04T23:58:57.388Z,26.40
